createdAt,value
2018-02-21T00:00:13.029Z,81.77
2018-02-21T00:02:40.523Z,82.53
2018-02-21T00:05:07.991Z,82.93
2018-02-21T00:07:35.474Z,82.55
2018-02-21T00:10:02.935Z,81.26
2018-02-21T00:12:30.417Z,80.86
2018-02-21T00:14:57.884Z,82.12
2018-02-21T00:17:25.379Z,83.02
2018-02-21T00:19:52.839Z,84.20
2018-02-21T00:22:20.336Z,84.80
2018-02-21T00:24:47.811Z,84.58
2018-02-21T00:27:15.303Z,84.52
2018-02-21T00:29:42.784Z,84.36
2018-02-21T00:32:10.267Z,84.47
2018-02-21T00:34:37.739Z,84.86
2018-02-21T00:37:05.229Z,84.71
2018-02-21T00:39:32.691Z,84.86
2018-02-21T00:42:00.172Z,84.63
2018-02-21T00:44:27.666Z,83.26
2018-02-21T00:46:55.136Z,83.21
2018-02-21T00:49:22.631Z,82.46
2018-02-21T00:51:50.096Z,83.02
2018-02-21T00:54:17.587Z,83.69
2018-02-21T00:56:45.082Z,84.03
2018-02-21T00:59:12.577Z,84.72
2018-02-21T01:01:40.056Z,85.18
2018-02-21T01:04:07.539Z,85.36
2018-02-21T01:06:35.015Z,84.16
2018-02-21T01:09:02.522Z,83.92
2018-02-21T01:11:30.005Z,84.64
2018-02-21T01:13:57.508Z,85.11
2018-02-21T01:16:24.992Z,84.91
2018-02-21T01:18:52.485Z,85.50
2018-02-21T01:21:19.959Z,85.61
2018-02-21T01:23:47.451Z,85.91
2018-02-21T01:26:14.932Z,86.48
2018-02-21T01:28:42.423Z,86.99
2018-02-21T01:31:09.900Z,87.21
2018-02-21T01:33:37.382Z,87.22
2018-02-21T01:36:04.855Z,86.49
2018-02-21T01:38:32.347Z,86.64
2018-02-21T01:40:59.814Z,86.76
2018-02-21T01:43:27.527Z,87.00
2018-02-21T01:45:54.995Z,87.53
2018-02-21T01:48:22.487Z,86.89
2018-02-21T01:50:52.782Z,86.96
2018-02-21T01:53:20.301Z,87.26
2018-02-21T01:55:47.769Z,87.55
2018-02-21T01:58:15.291Z,87.80
2018-02-21T02:00:42.779Z,87.15
2018-02-21T02:03:10.287Z,85.23
2018-02-21T02:05:37.774Z,85.42
2018-02-21T02:08:05.244Z,86.03
2018-02-21T02:10:32.735Z,86.42
2018-02-21T02:13:00.195Z,86.53
2018-02-21T02:15:27.674Z,86.68
2018-02-21T02:17:55.160Z,86.87
2018-02-21T02:20:23.180Z,87.27
2018-02-21T02:22:50.651Z,87.84
2018-02-21T02:25:18.152Z,86.80
2018-02-21T02:27:45.635Z,86.61
2018-02-21T02:30:13.124Z,86.60
2018-02-21T02:32:40.595Z,86.66
2018-02-21T02:35:08.085Z,86.84
2018-02-21T02:37:35.547Z,87.08
2018-02-21T02:40:03.047Z,87.50
2018-02-21T02:42:30.520Z,88.24
2018-02-21T02:44:58.011Z,87.94
2018-02-21T02:47:25.521Z,87.84
2018-02-21T02:49:53.008Z,87.87
2018-02-21T02:52:20.496Z,87.99
2018-02-21T02:54:47.995Z,88.22
2018-02-21T02:57:15.472Z,88.66
2018-02-21T02:59:42.963Z,89.13
2018-02-21T03:02:10.449Z,89.23
2018-02-21T03:04:37.945Z,89.13
2018-02-21T03:07:05.412Z,89.04
2018-02-21T03:09:32.903Z,89.00
2018-02-21T03:12:00.375Z,89.20
2018-02-21T03:14:27.871Z,89.64
2018-02-21T03:16:55.347Z,89.08
2018-02-21T03:19:22.834Z,88.22
2018-02-21T03:21:50.295Z,88.20
2018-02-21T03:24:17.783Z,87.98
2018-02-21T03:26:45.261Z,87.67
2018-02-21T03:29:12.732Z,87.06
2018-02-21T03:31:40.228Z,87.12
2018-02-21T03:34:07.711Z,87.45
2018-02-21T03:36:35.207Z,87.36
2018-02-21T03:39:02.676Z,87.73
2018-02-21T03:41:30.182Z,87.25
2018-02-21T03:43:57.646Z,87.14
2018-02-21T03:46:25.136Z,87.50
2018-02-21T03:48:52.632Z,86.99
2018-02-21T03:51:20.127Z,87.29
2018-02-21T03:53:47.591Z,87.80
2018-02-21T03:56:15.079Z,87.40
2018-02-21T03:58:42.547Z,86.96
2018-02-21T04:01:10.047Z,87.26
2018-02-21T04:03:37.520Z,87.12
2018-02-21T04:06:05.012Z,87.17
2018-02-21T04:08:32.489Z,87.08
2018-02-21T04:10:59.971Z,87.05
2018-02-21T04:13:27.434Z,86.42
2018-02-21T04:15:54.922Z,86.48
2018-02-21T04:18:22.392Z,85.77
2018-02-21T04:20:49.895Z,85.58
2018-02-21T04:23:17.372Z,85.72
2018-02-21T04:25:44.854Z,85.87
2018-02-21T04:28:12.324Z,85.56
2018-02-21T04:30:39.811Z,85.29
2018-02-21T04:33:07.278Z,85.22
2018-02-21T04:35:34.768Z,84.96
2018-02-21T04:38:02.237Z,84.22
2018-02-21T04:40:29.735Z,84.03
2018-02-21T04:42:57.199Z,84.18
2018-02-21T04:45:24.700Z,84.06
2018-02-21T04:47:52.168Z,84.24
2018-02-21T04:50:19.659Z,84.17
2018-02-21T04:52:47.142Z,84.69
2018-02-21T04:55:20.136Z,85.34
2018-02-21T05:00:54.444Z,85.43
2018-02-21T05:03:21.924Z,84.99
2018-02-21T05:05:49.427Z,85.08
2018-02-21T05:08:16.903Z,84.69
2018-02-21T05:10:44.367Z,84.39
2018-02-21T05:13:11.867Z,83.74
2018-02-21T05:15:39.347Z,83.42
2018-02-21T05:18:06.840Z,83.78
2018-02-21T05:20:34.313Z,83.70
2018-02-21T05:23:01.823Z,83.58
2018-02-21T05:25:29.282Z,84.57
2018-02-21T05:27:56.792Z,84.57
2018-02-21T05:30:24.263Z,85.00
2018-02-21T05:32:51.754Z,84.37
2018-02-21T05:35:19.243Z,85.31
2018-02-21T05:37:46.735Z,84.91
2018-02-21T05:40:14.209Z,85.76
2018-02-21T05:42:41.708Z,85.54
2018-02-21T05:45:09.557Z,85.76
2018-02-21T05:47:37.057Z,84.78
2018-02-21T05:50:04.523Z,84.31
2018-02-21T05:52:32.018Z,84.27
2018-02-21T05:54:59.500Z,84.94
2018-02-21T05:57:26.999Z,85.64
2018-02-21T05:59:54.471Z,86.45
2018-02-21T06:02:21.975Z,87.19
2018-02-21T06:04:49.463Z,87.39
2018-02-21T06:07:16.962Z,86.60
2018-02-21T06:09:44.433Z,86.53
2018-02-21T06:12:11.926Z,86.46
2018-02-21T06:14:39.423Z,86.79
2018-02-21T06:17:06.919Z,85.61
2018-02-21T06:19:34.399Z,85.32
2018-02-21T06:22:03.301Z,86.23
2018-02-21T06:24:30.784Z,87.04
2018-02-21T06:26:58.250Z,87.19
2018-02-21T06:29:25.755Z,86.26
2018-02-21T06:31:53.219Z,86.27
2018-02-21T06:34:20.723Z,86.48
2018-02-21T06:36:49.318Z,86.83
2018-02-21T06:39:16.837Z,86.95
2018-02-21T06:41:44.311Z,86.98
2018-02-21T06:44:11.808Z,87.30
2018-02-21T06:46:39.288Z,87.74
2018-02-21T06:49:06.796Z,87.73
2018-02-21T06:51:34.294Z,88.20
2018-02-21T06:54:02.016Z,88.05
2018-02-21T06:56:29.491Z,88.14
2018-02-21T07:01:30.919Z,88.27
2018-02-21T07:03:58.415Z,88.04
2018-02-21T07:06:25.900Z,87.97
2018-02-21T07:08:53.395Z,88.19
2018-02-21T07:11:20.885Z,88.32
2018-02-21T07:13:48.380Z,88.50
2018-02-21T07:16:15.876Z,88.81
2018-02-21T07:18:43.367Z,88.69
2018-02-21T07:21:10.839Z,88.71
2018-02-21T07:23:38.339Z,89.11
2018-02-21T07:26:05.811Z,89.09
2018-02-21T07:28:33.311Z,88.32
2018-02-21T07:31:00.782Z,88.05
2018-02-21T07:33:28.274Z,88.16
2018-02-21T07:35:55.751Z,87.75
2018-02-21T07:38:23.259Z,87.30
2018-02-21T07:40:50.764Z,87.06
2018-02-21T07:43:18.266Z,86.94
2018-02-21T07:45:45.741Z,86.93
2018-02-21T07:48:13.243Z,86.98
2018-02-21T07:50:40.719Z,86.97
2018-02-21T07:53:08.195Z,86.90
2018-02-21T07:55:35.684Z,87.01
2018-02-21T07:58:03.159Z,87.12
2018-02-21T08:00:30.663Z,87.23
2018-02-21T08:02:58.170Z,87.00
2018-02-21T08:05:25.644Z,86.84
2018-02-21T08:07:53.114Z,86.12
2018-02-21T08:10:20.599Z,86.21
2018-02-21T08:12:53.585Z,85.22
2018-02-21T08:15:21.129Z,84.62
2018-02-21T08:17:48.574Z,84.48
2018-02-21T08:20:16.064Z,84.31
2018-02-21T08:22:43.523Z,83.75
2018-02-21T08:25:11.019Z,83.90
2018-02-21T08:27:38.479Z,83.38
2018-02-21T08:30:05.967Z,83.89
2018-02-21T08:32:33.427Z,82.89
2018-02-21T08:35:00.920Z,82.52
2018-02-21T08:37:28.400Z,81.95
2018-02-21T08:39:55.884Z,82.38
2018-02-21T08:42:23.343Z,81.62
2018-02-21T08:44:50.847Z,82.43
2018-02-21T08:47:18.303Z,81.90
2018-02-21T08:49:45.788Z,82.16
2018-02-21T08:52:13.271Z,81.89
2018-02-21T08:54:40.761Z,80.99
2018-02-21T08:57:08.232Z,80.86
2018-02-21T08:59:35.715Z,80.21
2018-02-21T09:02:03.183Z,79.66
2018-02-21T09:04:30.662Z,78.82
2018-02-21T09:06:58.122Z,79.43
2018-02-21T09:09:25.603Z,78.40
2018-02-21T09:11:53.070Z,78.44
2018-02-21T09:14:20.555Z,78.50
2018-02-21T09:16:48.032Z,78.60
2018-02-21T09:19:15.491Z,78.68
2018-02-21T09:21:43.734Z,78.22
2018-02-21T09:24:11.436Z,77.50
2018-02-21T09:26:39.167Z,77.16
2018-02-21T09:29:06.652Z,76.34
2018-02-21T09:31:34.376Z,76.61
2018-02-21T09:34:03.100Z,74.87
2018-02-21T09:36:30.647Z,73.73
2018-02-21T09:38:58.175Z,73.44
2018-02-21T09:41:25.888Z,72.13
2018-02-21T09:43:53.855Z,72.04
2018-02-21T09:46:21.741Z,71.91
2018-02-21T09:48:49.503Z,69.94
2018-02-21T09:51:17.015Z,70.25
2018-02-21T09:53:45.256Z,68.69
2018-02-21T09:56:12.777Z,69.04
2018-02-21T09:58:40.239Z,68.36
2018-02-21T10:01:07.752Z,67.11
2018-02-21T10:03:35.600Z,66.73
2018-02-21T10:06:03.083Z,66.59
2018-02-21T10:08:30.838Z,66.37
2018-02-21T10:10:58.339Z,65.85
2018-02-21T10:13:25.827Z,64.67
2018-02-21T10:15:53.568Z,65.62
2018-02-21T10:18:21.476Z,65.93
2018-02-21T10:20:50.314Z,65.18
2018-02-21T10:23:18.719Z,65.02
2018-02-21T10:25:47.143Z,64.46
2018-02-21T10:28:14.621Z,63.83
2018-02-21T10:30:42.116Z,65.44
2018-02-21T10:33:09.587Z,64.47
2018-02-21T10:35:37.346Z,62.95
2018-02-21T10:38:05.656Z,62.57
2018-02-21T10:40:33.372Z,63.37
2018-02-21T10:43:00.925Z,61.97
2018-02-21T10:45:28.432Z,61.58
2018-02-21T10:47:55.980Z,61.79
2018-02-21T10:50:23.868Z,61.86
2018-02-21T10:52:51.920Z,61.33
2018-02-21T10:55:19.378Z,61.32
2018-02-21T10:57:46.854Z,61.23
2018-02-21T11:00:19.858Z,61.02
2018-02-21T11:02:47.992Z,62.00
2018-02-21T11:05:15.687Z,60.94
2018-02-21T11:07:44.134Z,60.83
2018-02-21T11:10:12.060Z,61.08
2018-02-21T11:12:39.559Z,60.39
2018-02-21T11:15:07.295Z,60.50
2018-02-21T11:17:35.066Z,59.90
2018-02-21T11:20:02.980Z,59.61
2018-02-21T11:22:31.223Z,61.51
2018-02-21T11:24:59.097Z,59.19
2018-02-21T11:27:27.497Z,59.56
2018-02-21T11:29:55.005Z,57.99
2018-02-21T11:32:22.491Z,59.63
2018-02-21T11:34:50.382Z,59.30
2018-02-21T11:37:17.889Z,60.44
2018-02-21T11:39:45.423Z,59.20
2018-02-21T11:42:13.181Z,58.61
2018-02-21T11:44:40.986Z,59.48
2018-02-21T11:47:08.714Z,58.30
2018-02-21T11:49:36.204Z,58.27
2018-02-21T11:52:04.407Z,56.70
2018-02-21T11:54:31.884Z,55.94
2018-02-21T11:56:59.688Z,56.77
2018-02-21T11:59:27.650Z,57.50
2018-02-21T12:01:55.984Z,56.42
2018-02-21T12:04:23.472Z,57.14
2018-02-21T12:06:50.976Z,55.81
2018-02-21T12:09:19.292Z,56.17
2018-02-21T12:11:46.788Z,55.73
2018-02-21T12:14:14.900Z,56.44
2018-02-21T12:16:42.769Z,56.69
2018-02-21T12:19:10.546Z,56.48
2018-02-21T12:21:38.034Z,55.48
2018-02-21T12:24:06.237Z,56.85
2018-02-21T12:26:33.812Z,56.63
2018-02-21T12:29:01.305Z,59.15
2018-02-21T12:31:29.740Z,59.46
2018-02-21T12:33:57.747Z,58.87
2018-02-21T12:36:25.447Z,59.05
2018-02-21T12:38:58.497Z,58.84
2018-02-21T12:41:43.117Z,59.14
2018-02-21T12:44:11.299Z,58.36
2018-02-21T12:46:38.772Z,58.20
2018-02-21T12:49:06.263Z,58.41
2018-02-21T12:51:33.732Z,58.02
2018-02-21T12:54:01.615Z,57.39
2018-02-21T12:56:29.070Z,57.12
2018-02-21T12:58:57.485Z,56.05
2018-02-21T13:01:25.868Z,56.24
2018-02-21T13:03:53.645Z,56.29
2018-02-21T13:06:21.155Z,55.97
2018-02-21T13:08:48.684Z,56.20
2018-02-21T13:11:16.674Z,55.58
2018-02-21T13:13:44.618Z,56.21
2018-02-21T13:16:12.085Z,55.89
2018-02-21T13:18:40.363Z,55.97
2018-02-21T13:21:07.878Z,56.20
2018-02-21T13:23:35.615Z,54.33
2018-02-21T13:26:03.883Z,54.46
2018-02-21T13:28:31.592Z,54.87
2018-02-21T13:30:59.983Z,54.55
2018-02-21T13:33:27.476Z,55.12
2018-02-21T13:35:54.990Z,54.47
2018-02-21T13:38:22.483Z,53.12
2018-02-21T13:40:49.951Z,52.20
2018-02-21T13:43:17.441Z,51.97
2018-02-21T13:45:44.910Z,52.77
2018-02-21T13:48:12.395Z,51.04
2018-02-21T13:50:39.859Z,52.05
2018-02-21T13:53:07.339Z,51.07
2018-02-21T13:55:34.800Z,49.29
2018-02-21T13:58:02.310Z,47.39
2018-02-21T14:00:29.779Z,46.91
2018-02-21T14:02:57.249Z,47.21
2018-02-21T14:05:24.737Z,45.78
2018-02-21T14:07:52.207Z,43.52
2018-02-21T14:10:19.693Z,46.06
2018-02-21T14:12:47.168Z,46.94
2018-02-21T14:15:14.655Z,46.67
2018-02-21T14:17:42.115Z,47.37
2018-02-21T14:20:09.595Z,48.33
2018-02-21T14:22:37.059Z,49.34
2018-02-21T14:25:04.547Z,48.96
2018-02-21T14:27:32.033Z,48.39
2018-02-21T14:29:59.538Z,46.65
2018-02-21T14:32:27.016Z,47.14
2018-02-21T14:34:54.503Z,47.97
2018-02-21T14:37:21.979Z,47.49
2018-02-21T14:39:49.471Z,47.72
2018-02-21T14:42:16.935Z,46.68
2018-02-21T14:44:44.414Z,46.65
2018-02-21T14:47:11.883Z,44.98
2018-02-21T14:49:39.375Z,45.50
2018-02-21T14:52:06.875Z,45.72
2018-02-21T14:54:34.368Z,46.00
2018-02-21T14:57:01.836Z,46.01
2018-02-21T14:59:29.327Z,44.12
2018-02-21T15:01:56.799Z,43.29
2018-02-21T15:04:24.287Z,43.88
2018-02-21T15:06:51.751Z,43.95
2018-02-21T15:09:19.239Z,43.63
2018-02-21T15:11:46.705Z,43.61
2018-02-21T15:14:14.183Z,43.71
2018-02-21T15:16:41.655Z,43.70
2018-02-21T15:19:09.141Z,44.90
2018-02-21T15:21:36.610Z,45.10
2018-02-21T15:24:04.281Z,44.88
2018-02-21T15:26:31.807Z,44.32
2018-02-21T15:28:59.300Z,43.55
2018-02-21T15:31:26.787Z,43.18
2018-02-21T15:33:54.255Z,45.44
2018-02-21T15:36:21.751Z,46.14
2018-02-21T15:38:49.253Z,46.09
2018-02-21T15:41:16.719Z,45.18
2018-02-21T15:43:44.183Z,45.18
2018-02-21T15:46:11.675Z,44.34
2018-02-21T15:48:39.171Z,45.57
2018-02-21T15:51:06.667Z,45.93
2018-02-21T15:53:34.145Z,47.14
2018-02-21T15:56:01.642Z,47.72
2018-02-21T15:58:29.112Z,48.57
2018-02-21T16:00:56.598Z,49.50
2018-02-21T16:03:24.080Z,49.04
2018-02-21T16:05:51.583Z,49.95
2018-02-21T16:08:19.064Z,50.29
2018-02-21T16:10:46.557Z,50.66
2018-02-21T16:13:14.023Z,51.74
2018-02-21T16:15:41.520Z,52.45
2018-02-21T16:18:09.007Z,52.45
2018-02-21T16:20:36.493Z,52.86
2018-02-21T16:23:03.959Z,53.33
2018-02-21T16:25:31.444Z,53.90
2018-02-21T16:27:58.932Z,54.60
2018-02-21T16:30:26.439Z,54.85
2018-02-21T16:32:55.240Z,55.72
2018-02-21T16:35:22.744Z,56.30
2018-02-21T16:37:50.211Z,57.04
2018-02-21T16:40:17.690Z,57.90
2018-02-21T16:42:45.163Z,58.42
2018-02-21T16:45:12.675Z,58.64
2018-02-21T16:47:40.168Z,58.65
2018-02-21T16:50:07.672Z,59.44
2018-02-21T16:52:35.166Z,59.92
2018-02-21T16:55:02.664Z,60.41
2018-02-21T16:57:30.153Z,59.08
2018-02-21T16:59:57.620Z,59.12
2018-02-21T17:02:25.099Z,58.33
2018-02-21T17:04:52.575Z,59.17
2018-02-21T17:07:20.063Z,58.78
2018-02-21T17:09:47.551Z,59.57
2018-02-21T17:12:15.075Z,57.97
2018-02-21T17:14:43.431Z,57.89
2018-02-21T17:17:10.945Z,57.84
2018-02-21T17:19:38.424Z,58.08
2018-02-21T17:22:05.923Z,57.86
2018-02-21T17:24:33.425Z,58.77
2018-02-21T17:27:00.922Z,59.33
2018-02-21T17:29:28.412Z,58.96
2018-02-21T17:31:55.944Z,58.80
2018-02-21T17:34:23.411Z,59.08
2018-02-21T17:36:51.147Z,59.71
2018-02-21T17:39:18.651Z,59.86
2018-02-21T17:41:46.143Z,60.13
2018-02-21T17:44:15.087Z,60.32
2018-02-21T17:46:42.984Z,61.78
2018-02-21T17:49:10.507Z,61.23
2018-02-21T17:51:38.021Z,62.33
2018-02-21T17:54:05.501Z,61.46
2018-02-21T17:56:33.000Z,61.52
2018-02-21T17:59:00.484Z,61.84
2018-02-21T18:01:28.045Z,62.02
2018-02-21T18:03:55.530Z,61.82
2018-02-21T18:06:23.164Z,61.81
2018-02-21T18:08:50.668Z,62.70
2018-02-21T18:11:18.158Z,62.59
2018-02-21T18:13:45.636Z,62.14
2018-02-21T18:16:13.136Z,63.05
2018-02-21T18:18:40.603Z,62.33
2018-02-21T18:21:08.075Z,62.86
2018-02-21T18:23:35.567Z,63.17
2018-02-21T18:26:03.039Z,63.16
2018-02-21T18:28:30.525Z,62.62
2018-02-21T18:30:58.000Z,62.63
2018-02-21T18:33:27.491Z,62.15
2018-02-21T18:35:54.966Z,61.75
2018-02-21T18:38:22.444Z,61.91
2018-02-21T18:40:49.913Z,61.35
2018-02-21T18:43:17.427Z,62.12
2018-02-21T18:48:26.911Z,61.43
2018-02-21T18:50:54.371Z,61.63
2018-02-21T18:53:21.874Z,62.54
2018-02-21T18:55:49.341Z,63.63
2018-02-21T18:58:16.830Z,62.57
2018-02-21T19:00:44.401Z,62.92
2018-02-21T19:03:11.889Z,64.10
2018-02-21T19:05:39.371Z,63.40
2018-02-21T19:08:06.877Z,62.97
2018-02-21T19:10:34.349Z,63.38
2018-02-21T19:13:01.864Z,63.75
2018-02-21T19:15:29.380Z,65.05
2018-02-21T19:17:56.899Z,64.36
2018-02-21T19:20:24.362Z,64.01
2018-02-21T19:22:51.861Z,64.11
2018-02-21T19:25:19.325Z,64.60
2018-02-21T19:27:46.808Z,63.79
2018-02-21T19:30:15.007Z,64.75
2018-02-21T19:32:42.504Z,64.66
2018-02-21T19:35:09.964Z,65.22
2018-02-21T19:37:37.444Z,66.35
2018-02-21T19:40:04.907Z,66.21
2018-02-21T19:42:32.389Z,65.74
2018-02-21T19:44:59.858Z,66.03
2018-02-21T19:47:27.335Z,65.49
2018-02-21T19:49:54.820Z,66.50
2018-02-21T19:52:22.301Z,67.24
2018-02-21T19:54:49.793Z,67.84
2018-02-21T19:57:17.259Z,68.41
2018-02-21T19:59:44.747Z,67.74
2018-02-21T20:02:12.206Z,67.91
2018-02-21T20:04:39.692Z,67.26
2018-02-21T20:07:07.159Z,68.20
2018-02-21T20:09:34.653Z,67.75
2018-02-21T20:12:02.136Z,68.63
2018-02-21T20:14:29.615Z,68.52
2018-02-21T20:16:57.080Z,69.22
2018-02-21T20:19:24.562Z,69.96
2018-02-21T20:21:52.032Z,69.83
2018-02-21T20:24:19.576Z,69.10
2018-02-21T20:26:47.035Z,69.34
2018-02-21T20:29:14.526Z,69.83
2018-02-21T20:31:41.991Z,69.78
2018-02-21T20:34:09.480Z,70.82
2018-02-21T20:36:36.954Z,70.36
2018-02-21T20:39:04.467Z,70.58
2018-02-21T20:41:31.940Z,71.29
2018-02-21T20:43:59.429Z,71.92
2018-02-21T20:46:26.903Z,72.15
2018-02-21T20:48:54.387Z,72.77
2018-02-21T20:51:21.846Z,73.21
2018-02-21T20:53:49.343Z,73.16
2018-02-21T20:56:16.816Z,72.81
2018-02-21T20:58:44.302Z,73.10
2018-02-21T21:01:11.779Z,73.34
2018-02-21T21:03:39.262Z,73.09
2018-02-21T21:06:06.731Z,73.72
2018-02-21T21:08:34.256Z,74.32
2018-02-21T21:11:01.732Z,74.73
2018-02-21T21:13:29.207Z,75.16
2018-02-21T21:15:56.715Z,75.43
2018-02-21T21:18:24.187Z,75.08
2018-02-21T21:20:51.687Z,74.88
2018-02-21T21:23:19.154Z,75.15
2018-02-21T21:25:46.654Z,75.26
2018-02-21T21:28:14.189Z,75.66
2018-02-21T21:30:41.671Z,75.95
2018-02-21T21:33:09.153Z,76.09
2018-02-21T21:35:36.651Z,76.24
2018-02-21T21:38:04.127Z,76.11
2018-02-21T21:40:31.627Z,74.96
2018-02-21T21:42:59.095Z,74.75
2018-02-21T21:45:26.591Z,74.54
2018-02-21T21:47:54.066Z,74.85
2018-02-21T21:50:21.555Z,74.51
2018-02-21T21:52:49.035Z,74.70
2018-02-21T21:55:16.524Z,73.86
2018-02-21T21:57:44.015Z,74.24
2018-02-21T22:00:11.503Z,74.70
2018-02-21T22:02:38.983Z,74.32
2018-02-21T22:05:06.475Z,74.57
2018-02-21T22:07:33.938Z,74.93
2018-02-21T22:10:01.434Z,75.42
2018-02-21T22:12:28.906Z,75.22
2018-02-21T22:14:56.452Z,75.92
2018-02-21T22:17:23.927Z,76.45
2018-02-21T22:19:51.420Z,76.72
2018-02-21T22:22:19.631Z,76.70
2018-02-21T22:24:47.119Z,76.45
2018-02-21T22:27:14.580Z,76.46
2018-02-21T22:29:42.124Z,76.49
2018-02-21T22:32:09.595Z,76.64
2018-02-21T22:34:37.075Z,77.31
2018-02-21T22:37:04.566Z,77.68
2018-02-21T22:39:32.035Z,78.50
2018-02-21T22:41:59.515Z,79.05
2018-02-21T22:44:27.008Z,79.05
2018-02-21T22:46:54.495Z,78.92
2018-02-21T22:49:21.972Z,78.74
2018-02-21T22:51:49.459Z,78.81
2018-02-21T22:54:16.931Z,78.74
2018-02-21T22:56:44.414Z,78.51
2018-02-21T22:59:11.882Z,78.25
2018-02-21T23:01:39.375Z,78.45
2018-02-21T23:04:06.851Z,78.53
2018-02-21T23:06:34.691Z,78.77
2018-02-21T23:09:02.154Z,79.06
2018-02-21T23:11:29.659Z,78.75
2018-02-21T23:13:57.152Z,79.13
2018-02-21T23:16:24.651Z,79.15
2018-02-21T23:18:52.127Z,78.99
2018-02-21T23:21:19.610Z,78.93
2018-02-21T23:23:47.082Z,78.73
2018-02-21T23:26:14.570Z,79.05
2018-02-21T23:28:42.035Z,79.28
2018-02-21T23:31:09.519Z,78.72
2018-02-21T23:33:36.988Z,78.83
2018-02-21T23:36:04.480Z,79.16
2018-02-21T23:38:31.957Z,78.58
2018-02-21T23:40:59.462Z,78.38
2018-02-21T23:43:26.925Z,78.06
2018-02-21T23:45:54.403Z,77.85
2018-02-21T23:48:21.876Z,77.71
2018-02-21T23:50:49.384Z,77.70
2018-02-21T23:53:16.863Z,78.32
2018-02-21T23:55:44.367Z,78.43
2018-02-21T23:58:11.844Z,78.37
